International Virtual Aviation Organisation

Russian Federation and Kazakhstan MCD

 
UHMA 270330Z 09008MPS 9999 DRSN VCSH FEW013 SCT022CB BKN030 M03/M06 Q0986 R01/452049 TEMPO 0400 +SHSN RMK TDZ R01/09008G11MPS END R01/09011G13MPS QFE736/0981
QNH:(hPa/inHg/mmHg)986 / 29.12 / 740
QFE:(hPa/inHg/mmHg)979 / 28.90 / 734
Temperature-3
Dew Point-6
Visibility0400
WeatherVicinity Showers;Heavy Showers Snow
Cloud CoverFEW (1300);
SCT (2200);
BKN (3000);
Transition Height1600 m./5500 ft.
Transition LevelFL80
SQUAWK